sensor_id;sensor_type;location;lat;lon;timestamp;P1;durP1;ratioP1;P2;durP2;ratioP2
42450;SDS011;28080;51.138;17.170;2024-01-15T00:08:47;26.80;;;10.10;;
42450;SDS011;28080;51.138;17.170;2024-01-15T00:44:46;14.50;;;6.90;;
42450;SDS011;28080;51.138;17.170;2024-01-15T00:55:11;15.00;;;7.40;;
42450;SDS011;28080;51.138;17.170;2024-01-15T01:05:36;17.00;;;7.80;;
42450;SDS011;28080;51.138;17.170;2024-01-15T01:16:01;14.80;;;7.90;;
42450;SDS011;28080;51.138;17.170;2024-01-15T01:26:27;15.70;;;7.30;;
42450;SDS011;28080;51.138;17.170;2024-01-15T01:36:52;15.90;;;7.70;;
42450;SDS011;28080;51.138;17.170;2024-01-15T01:47:17;13.20;;;6.30;;
42450;SDS011;28080;51.138;17.170;2024-01-15T02:30:42;17.20;;;8.80;;
42450;SDS011;28080;51.138;17.170;2024-01-15T02:41:07;19.20;;;9.80;;
42450;SDS011;28080;51.138;17.170;2024-01-15T02:51:32;16.90;;;8.80;;
42450;SDS011;28080;51.138;17.170;2024-01-15T03:01:53;21.00;;;11.40;;
42450;SDS011;28080;51.138;17.170;2024-01-15T03:12:18;18.90;;;9.60;;
42450;SDS011;28080;51.138;17.170;2024-01-15T03:22:44;13.10;;;6.50;;
42450;SDS011;28080;51.138;17.170;2024-01-15T03:33:08;12.60;;;6.40;;
42450;SDS011;28080;51.138;17.170;2024-01-15T03:43:33;10.60;;;6.00;;
42450;SDS011;28080;51.138;17.170;2024-01-15T03:53:58;9.80;;;5.60;;
42450;SDS011;28080;51.138;17.170;2024-01-15T04:04:23;9.00;;;4.90;;
42450;SDS011;28080;51.138;17.170;2024-01-15T04:14:48;10.10;;;5.50;;
42450;SDS011;28080;51.138;17.170;2024-01-15T04:25:14;14.30;;;6.30;;
42450;SDS011;28080;51.138;17.170;2024-01-15T04:35:39;13.50;;;6.30;;
42450;SDS011;28080;51.138;17.170;2024-01-15T04:46:05;18.00;;;5.60;;
42450;SDS011;28080;51.138;17.170;2024-01-15T04:56:30;14.10;;;6.40;;
42450;SDS011;28080;51.138;17.170;2024-01-15T05:06:55;14.00;;;7.00;;
42450;SDS011;28080;51.138;17.170;2024-01-15T05:17:20;18.30;;;8.40;;
42450;SDS011;28080;51.138;17.170;2024-01-15T05:27:45;13.30;;;6.30;;
42450;SDS011;28080;51.138;17.170;2024-01-15T05:38:10;12.60;;;6.30;;
42450;SDS011;28080;51.138;17.170;2024-01-15T05:48:36;9.40;;;4.10;;
42450;SDS011;28080;51.138;17.170;2024-01-15T05:59:01;8.90;;;4.90;;
42450;SDS011;28080;51.138;17.170;2024-01-15T06:09:26;8.90;;;5.30;;
42450;SDS011;28080;51.138;17.170;2024-01-15T06:19:51;9.60;;;5.30;;
42450;SDS011;28080;51.138;17.170;2024-01-15T06:30:16;11.80;;;6.10;;
42450;SDS011;28080;51.138;17.170;2024-01-15T06:40:42;11.20;;;4.80;;
42450;SDS011;28080;51.138;17.170;2024-01-15T06:51:09;10.30;;;5.90;;
42450;SDS011;28080;51.138;17.170;2024-01-15T07:01:34;8.50;;;5.00;;
42450;SDS011;28080;51.138;17.170;2024-01-15T07:12:00;11.20;;;5.70;;
42450;SDS011;28080;51.138;17.170;2024-01-15T07:22:25;12.90;;;6.40;;
42450;SDS011;28080;51.138;17.170;2024-01-15T07:32:52;9.90;;;4.70;;
42450;SDS011;28080;51.138;17.170;2024-01-15T07:43:17;14.60;;;5.60;;
42450;SDS011;28080;51.138;17.170;2024-01-15T07:53:42;14.40;;;6.50;;
42450;SDS011;28080;51.138;17.170;2024-01-15T08:04:08;10.50;;;5.70;;
42450;SDS011;28080;51.138;17.170;2024-01-15T08:14:35;9.70;;;4.90;;
42450;SDS011;28080;51.138;17.170;2024-01-15T08:25:00;11.90;;;5.00;;
42450;SDS011;28080;51.138;17.170;2024-01-15T08:35:26;9.50;;;4.20;;
42450;SDS011;28080;51.138;17.170;2024-01-15T08:45:51;8.70;;;4.20;;
42450;SDS011;28080;51.138;17.170;2024-01-15T08:56:16;8.40;;;4.10;;
42450;SDS011;28080;51.138;17.170;2024-01-15T09:06:42;11.60;;;3.70;;
42450;SDS011;28080;51.138;17.170;2024-01-15T09:17:07;7.60;;;4.00;;
42450;SDS011;28080;51.138;17.170;2024-01-15T09:27:33;6.60;;;3.30;;
42450;SDS011;28080;51.138;17.170;2024-01-15T09:37:58;8.80;;;3.90;;
42450;SDS011;28080;51.138;17.170;2024-01-15T09:48:23;10.50;;;3.90;;
42450;SDS011;28080;51.138;17.170;2024-01-15T09:58:41;9.10;;;3.70;;
42450;SDS011;28080;51.138;17.170;2024-01-15T10:09:10;8.20;;;3.70;;
42450;SDS011;28080;51.138;17.170;2024-01-15T10:19:37;8.90;;;3.20;;
42450;SDS011;28080;51.138;17.170;2024-01-15T10:30:04;10.60;;;3.30;;
42450;SDS011;28080;51.138;17.170;2024-01-15T10:40:30;8.50;;;3.60;;
42450;SDS011;28080;51.138;17.170;2024-01-15T10:50:55;8.90;;;3.20;;
42450;SDS011;28080;51.138;17.170;2024-01-15T11:12:56;7.40;;;3.20;;
42450;SDS011;28080;51.138;17.170;2024-01-15T11:45:15;6.00;;;3.10;;
42450;SDS011;28080;51.138;17.170;2024-01-15T11:55:43;8.60;;;2.60;;
42450;SDS011;28080;51.138;17.170;2024-01-15T12:06:10;15.70;;;3.60;;
42450;SDS011;28080;51.138;17.170;2024-01-15T12:16:35;8.30;;;2.80;;
42450;SDS011;28080;51.138;17.170;2024-01-15T12:27:01;8.00;;;3.30;;
42450;SDS011;28080;51.138;17.170;2024-01-15T12:37:26;7.00;;;3.00;;
42450;SDS011;28080;51.138;17.170;2024-01-15T12:47:52;11.50;;;3.70;;
42450;SDS011;28080;51.138;17.170;2024-01-15T12:58:17;7.20;;;3.20;;
42450;SDS011;28080;51.138;17.170;2024-01-15T13:08:35;8.90;;;3.40;;
42450;SDS011;28080;51.138;17.170;2024-01-15T13:19:00;7.90;;;3.10;;
42450;SDS011;28080;51.138;17.170;2024-01-15T13:29:26;9.00;;;3.10;;
42450;SDS011;28080;51.138;17.170;2024-01-15T13:39:51;7.30;;;2.80;;
42450;SDS011;28080;51.138;17.170;2024-01-15T13:50:16;10.70;;;4.10;;
42450;SDS011;28080;51.138;17.170;2024-01-15T14:01:12;7.00;;;2.50;;
42450;SDS011;28080;51.138;17.170;2024-01-15T14:11:37;10.20;;;3.50;;
42450;SDS011;28080;51.138;17.170;2024-01-15T14:22:02;8.40;;;3.50;;
42450;SDS011;28080;51.138;17.170;2024-01-15T14:32:28;6.40;;;2.90;;
42450;SDS011;28080;51.138;17.170;2024-01-15T14:42:53;10.90;;;3.90;;
42450;SDS011;28080;51.138;17.170;2024-01-15T14:53:18;7.90;;;3.60;;
42450;SDS011;28080;51.138;17.170;2024-01-15T15:03:43;9.00;;;2.90;;
42450;SDS011;28080;51.138;17.170;2024-01-15T15:14:12;12.30;;;4.80;;
42450;SDS011;28080;51.138;17.170;2024-01-15T15:24:27;13.30;;;6.30;;
42450;SDS011;28080;51.138;17.170;2024-01-15T15:34:52;16.90;;;5.30;;
42450;SDS011;28080;51.138;17.170;2024-01-15T15:45:00;16.80;;;5.30;;
42450;SDS011;28080;51.138;17.170;2024-01-15T15:55:17;8.50;;;4.10;;
42450;SDS011;28080;51.138;17.170;2024-01-15T16:05:31;8.10;;;2.80;;
42450;SDS011;28080;51.138;17.170;2024-01-15T16:15:46;8.90;;;3.40;;
42450;SDS011;28080;51.138;17.170;2024-01-15T16:25:57;9.40;;;3.10;;
42450;SDS011;28080;51.138;17.170;2024-01-15T16:36:22;9.90;;;3.90;;
42450;SDS011;28080;51.138;17.170;2024-01-15T16:46:31;12.60;;;5.00;;
42450;SDS011;28080;51.138;17.170;2024-01-15T16:56:36;10.10;;;4.80;;
42450;SDS011;28080;51.138;17.170;2024-01-15T17:06:54;7.60;;;4.60;;
42450;SDS011;28080;51.138;17.170;2024-01-15T17:17:19;11.20;;;5.30;;
42450;SDS011;28080;51.138;17.170;2024-01-15T17:27:37;13.50;;;5.90;;
42450;SDS011;28080;51.138;17.170;2024-01-15T17:38:03;12.40;;;5.00;;
42450;SDS011;28080;51.138;17.170;2024-01-15T17:48:28;9.70;;;3.80;;
42450;SDS011;28080;51.138;17.170;2024-01-15T17:58:54;8.00;;;3.90;;
42450;SDS011;28080;51.138;17.170;2024-01-15T18:09:20;8.90;;;3.60;;
42450;SDS011;28080;51.138;17.170;2024-01-15T18:19:45;7.90;;;3.50;;
42450;SDS011;28080;51.138;17.170;2024-01-15T18:30:12;7.80;;;3.30;;
42450;SDS011;28080;51.138;17.170;2024-01-15T18:40:38;8.60;;;4.10;;
42450;SDS011;28080;51.138;17.170;2024-01-15T18:51:03;8.70;;;3.90;;
42450;SDS011;28080;51.138;17.170;2024-01-15T19:01:28;9.40;;;4.70;;
42450;SDS011;28080;51.138;17.170;2024-01-15T19:11:57;8.80;;;4.60;;
42450;SDS011;28080;51.138;17.170;2024-01-15T19:22:23;10.70;;;4.70;;
42450;SDS011;28080;51.138;17.170;2024-01-15T19:32:58;7.20;;;4.20;;
42450;SDS011;28080;51.138;17.170;2024-01-15T19:43:23;6.50;;;4.00;;
42450;SDS011;28080;51.138;17.170;2024-01-15T19:53:50;9.70;;;4.70;;
42450;SDS011;28080;51.138;17.170;2024-01-15T20:04:15;13.80;;;8.10;;
42450;SDS011;28080;51.138;17.170;2024-01-15T20:14:40;9.20;;;5.00;;
42450;SDS011;28080;51.138;17.170;2024-01-15T20:25:05;9.80;;;4.70;;
42450;SDS011;28080;51.138;17.170;2024-01-15T20:57:06;11.80;;;5.80;;
42450;SDS011;28080;51.138;17.170;2024-01-15T21:07:31;9.90;;;4.90;;
42450;SDS011;28080;51.138;17.170;2024-01-15T21:17:56;11.30;;;5.50;;
42450;SDS011;28080;51.138;17.170;2024-01-15T21:28:22;13.80;;;6.40;;
42450;SDS011;28080;51.138;17.170;2024-01-15T21:38:47;16.10;;;6.20;;
42450;SDS011;28080;51.138;17.170;2024-01-15T21:49:12;11.20;;;5.90;;
42450;SDS011;28080;51.138;17.170;2024-01-15T21:59:37;11.20;;;5.80;;
42450;SDS011;28080;51.138;17.170;2024-01-15T22:10:04;13.00;;;5.90;;
42450;SDS011;28080;51.138;17.170;2024-01-15T22:20:31;13.60;;;6.60;;
42450;SDS011;28080;51.138;17.170;2024-01-15T22:30:56;12.50;;;5.00;;
42450;SDS011;28080;51.138;17.170;2024-01-15T22:41:21;9.80;;;5.00;;
42450;SDS011;28080;51.138;17.170;2024-01-15T22:51:46;9.40;;;5.20;;
42450;SDS011;28080;51.138;17.170;2024-01-15T23:02:11;14.60;;;6.90;;
42450;SDS011;28080;51.138;17.170;2024-01-15T23:12:37;14.50;;;8.60;;
42450;SDS011;28080;51.138;17.170;2024-01-15T23:23:02;11.40;;;6.00;;
42450;SDS011;28080;51.138;17.170;2024-01-15T23:33:27;16.30;;;10.00;;
42450;SDS011;28080;51.138;17.170;2024-01-15T23:43:52;10.40;;;6.60;;
42450;SDS011;28080;51.138;17.170;2024-01-15T23:54:10;11.10;;;6.50;;
